createdAt,value
2023-03-05T00:00:26.377Z,36.06
2023-03-05T00:01:35.642Z,36.12
2023-03-05T00:02:38.489Z,36.13
2023-03-05T00:03:41.261Z,36.27
2023-03-05T00:04:44.066Z,36.24
2023-03-05T00:05:46.751Z,35.73
2023-03-05T00:06:49.916Z,35.90
2023-03-05T00:07:52.606Z,36.03
2023-03-05T00:08:56.329Z,36.18
2023-03-05T00:10:00.685Z,36.18
2023-03-05T00:11:05.695Z,36.15
2023-03-05T00:12:08.934Z,36.17
2023-03-05T00:13:12.709Z,36.19
2023-03-05T00:14:15.333Z,35.88
2023-03-05T00:15:18.296Z,35.84
2023-03-05T00:16:21.597Z,35.96
2023-03-05T00:17:24.458Z,36.07
2023-03-05T00:18:27.161Z,35.71
2023-03-05T00:19:30.038Z,35.99
2023-03-05T00:20:35.525Z,35.72
2023-03-05T00:21:39.899Z,35.72
2023-03-05T00:22:42.932Z,35.75
2023-03-05T00:23:45.541Z,35.74
2023-03-05T00:24:51.486Z,35.33
2023-03-05T00:25:54.283Z,35.61
2023-03-05T00:26:57.036Z,35.43
2023-03-05T00:27:59.543Z,35.59
2023-03-05T00:29:03.496Z,35.36
2023-03-05T00:30:07.954Z,35.36
2023-03-05T00:31:12.195Z,35.48
2023-03-05T00:32:14.889Z,35.32
2023-03-05T00:33:17.858Z,35.58
2023-03-05T00:34:20.519Z,35.54
2023-03-05T00:35:23.370Z,35.38
2023-03-05T00:36:26.065Z,35.48
2023-03-05T00:37:28.525Z,35.09
2023-03-05T00:38:31.001Z,35.37
2023-03-05T00:39:33.526Z,35.25
2023-03-05T00:41:50.852Z,35.32
2023-03-05T00:42:54.096Z,35.33
2023-03-05T00:43:56.769Z,35.40
2023-03-05T00:44:59.501Z,35.46
2023-03-05T00:46:03.507Z,35.26
2023-03-05T00:47:07.682Z,35.42
2023-03-05T00:48:11.941Z,35.46
2023-03-05T00:49:14.697Z,35.41
2023-03-05T00:50:18.276Z,35.33
2023-03-05T00:51:21.316Z,35.47
2023-03-05T00:52:24.134Z,35.52
2023-03-05T00:53:26.964Z,35.41
2023-03-05T00:54:30.580Z,35.40
2023-03-05T00:55:35.216Z,35.21
2023-03-05T00:56:37.975Z,35.07
2023-03-05T00:57:40.909Z,35.19
2023-03-05T00:58:43.509Z,35.17
2023-03-05T00:59:47.230Z,35.26
2023-03-05T01:00:50.138Z,35.34
2023-03-05T01:01:53.123Z,35.39
2023-03-05T01:02:55.917Z,35.46
2023-03-05T01:04:01.462Z,35.56
2023-03-05T01:05:04.796Z,35.56
2023-03-05T01:06:09.629Z,35.62
2023-03-05T01:07:13.436Z,35.69
2023-03-05T01:08:16.372Z,35.71
2023-03-05T01:09:19.004Z,35.68
2023-03-05T01:10:23.370Z,35.63
2023-03-05T01:11:25.993Z,35.77
2023-03-05T01:12:28.539Z,35.70
2023-03-05T01:13:31.783Z,35.75
2023-03-05T01:14:36.329Z,35.75
2023-03-05T01:15:39.033Z,35.69
2023-03-05T01:16:42.476Z,35.74
2023-03-05T01:17:46.198Z,35.77
2023-03-05T01:18:49.138Z,35.76
2023-03-05T01:19:52.240Z,35.81
2023-03-05T01:20:57.022Z,35.94
2023-03-05T01:21:59.536Z,35.95
2023-03-05T01:23:02.917Z,35.95
2023-03-05T01:24:06.413Z,35.94
2023-03-05T01:25:09.373Z,35.98
2023-03-05T01:26:13.009Z,35.96
2023-03-05T01:27:16.413Z,36.03
2023-03-05T01:28:18.953Z,36.03
2023-03-05T01:29:21.388Z,36.08
2023-03-05T01:30:24.476Z,36.13
2023-03-05T01:31:27.185Z,36.11
2023-03-05T01:32:29.749Z,36.08
2023-03-05T01:33:32.410Z,36.08
2023-03-05T01:34:37.177Z,36.03
2023-03-05T01:35:41.218Z,35.97
2023-03-05T01:36:43.975Z,35.94
2023-03-05T01:37:47.200Z,35.93
2023-03-05T01:38:50.612Z,35.83
2023-03-05T01:39:56.240Z,35.86
2023-03-05T01:40:59.480Z,35.88
2023-03-05T01:42:02.965Z,35.89
2023-03-05T01:43:12.765Z,35.88
2023-03-05T01:45:38.125Z,35.90
2023-03-05T01:46:42.002Z,36.24
2023-03-05T01:47:44.784Z,36.24
2023-03-05T01:48:51.247Z,35.93
2023-03-05T01:49:53.918Z,35.94
2023-03-05T01:50:56.581Z,35.94
2023-03-05T01:52:11.168Z,35.94
2023-03-05T01:53:14.783Z,35.98
2023-03-05T01:54:18.284Z,35.92
2023-03-05T01:55:23.270Z,35.85
2023-03-05T01:56:27.824Z,35.65
2023-03-05T01:57:36.159Z,35.76
2023-03-05T01:58:39.322Z,35.75
2023-03-05T01:59:42.973Z,35.77
2023-03-05T02:00:47.691Z,35.78
2023-03-05T02:01:51.742Z,35.75
2023-03-05T02:02:54.710Z,35.79
2023-03-05T02:03:57.570Z,35.84
2023-03-05T02:05:06.048Z,35.81
2023-03-05T02:06:09.590Z,35.79
2023-03-05T02:07:12.688Z,35.76
2023-03-05T02:08:17.309Z,35.73
2023-03-05T02:09:23.491Z,35.80
2023-03-05T02:11:42.793Z,35.88
2023-03-05T02:12:45.265Z,35.87
2023-03-05T02:13:47.720Z,35.86
2023-03-05T02:14:53.724Z,35.86
2023-03-05T02:15:57.714Z,35.82
2023-03-05T02:17:01.202Z,35.81
2023-03-05T02:18:04.681Z,35.77
2023-03-05T02:19:10.247Z,35.78
2023-03-05T02:21:39.264Z,35.77
2023-03-05T02:22:41.850Z,35.77
2023-03-05T02:23:44.945Z,35.75
2023-03-05T02:24:47.525Z,35.72
2023-03-05T02:25:50.399Z,35.70
2023-03-05T02:26:53.134Z,35.68
2023-03-05T02:28:02.038Z,35.66
2023-03-05T02:29:04.965Z,35.65
2023-03-05T02:30:09.051Z,35.62
2023-03-05T02:31:18.851Z,35.54
2023-03-05T02:32:21.699Z,35.49
2023-03-05T02:33:24.528Z,35.49
2023-03-05T02:34:27.596Z,35.44
2023-03-05T02:35:31.009Z,35.46
2023-03-05T02:36:34.393Z,35.45
2023-03-05T02:37:37.071Z,35.44
2023-03-05T02:38:40.031Z,35.41
2023-03-05T02:39:42.557Z,35.39
2023-03-05T02:40:47.045Z,35.39
2023-03-05T02:41:49.898Z,35.41
2023-03-05T02:42:52.562Z,35.36
2023-03-05T02:43:55.317Z,35.75
2023-03-05T02:44:58.596Z,35.54
2023-03-05T02:46:01.951Z,35.64
2023-03-05T02:47:05.213Z,35.42
2023-03-05T02:48:08.572Z,35.28
2023-03-05T02:49:11.713Z,35.02
2023-03-05T02:50:14.448Z,35.02
2023-03-05T02:51:18.118Z,35.49
2023-03-05T02:52:22.727Z,35.49
2023-03-05T02:53:26.520Z,35.42
2023-03-05T02:54:29.527Z,35.46
2023-03-05T02:55:32.234Z,35.48
2023-03-05T02:56:37.736Z,35.45
2023-03-05T02:57:41.542Z,35.45
2023-03-05T02:58:44.479Z,35.46
2023-03-05T02:59:47.395Z,35.46
2023-03-05T03:00:50.169Z,35.50
2023-03-05T03:01:52.646Z,35.52
2023-03-05T03:02:55.596Z,35.53
2023-03-05T03:03:59.296Z,35.55
2023-03-05T03:05:02.057Z,35.57
2023-03-05T03:06:06.443Z,35.47
2023-03-05T03:07:10.598Z,35.53
2023-03-05T03:08:14.536Z,35.53
2023-03-05T03:09:17.034Z,35.55
2023-03-05T03:10:19.782Z,35.47
2023-03-05T03:11:22.303Z,35.42
2023-03-05T03:12:24.921Z,35.50
2023-03-05T03:13:27.773Z,35.53
2023-03-05T03:14:35.250Z,35.56
2023-03-05T03:15:39.836Z,35.58
2023-03-05T03:16:42.684Z,35.64
2023-03-05T03:17:45.830Z,35.64
2023-03-05T03:18:48.661Z,35.66
2023-03-05T03:19:51.293Z,35.57
2023-03-05T03:20:54.459Z,35.47
2023-03-05T03:21:57.451Z,35.50
2023-03-05T03:23:00.425Z,35.50
2023-03-05T03:24:04.328Z,35.53
2023-03-05T03:25:09.510Z,35.55
2023-03-05T03:26:12.007Z,35.40
2023-03-05T03:27:15.572Z,35.37
2023-03-05T03:28:18.301Z,35.40
2023-03-05T03:29:21.016Z,35.31
2023-03-05T03:30:23.733Z,35.32
2023-03-05T03:31:26.998Z,35.57
2023-03-05T03:32:30.516Z,35.57
2023-03-05T03:33:33.228Z,35.33
2023-03-05T03:34:35.904Z,35.35
2023-03-05T03:35:38.558Z,35.40
2023-03-05T03:36:42.765Z,35.39
2023-03-05T03:37:45.268Z,35.53
2023-03-05T03:38:48.534Z,35.56
2023-03-05T03:39:51.627Z,35.49
2023-03-05T03:40:54.429Z,35.50
2023-03-05T03:41:57.167Z,35.55
2023-03-05T03:42:59.715Z,35.64
2023-03-05T03:44:05.226Z,35.63
2023-03-05T03:45:08.744Z,35.67
2023-03-05T03:46:12.991Z,35.63
2023-03-05T03:47:16.386Z,35.66
2023-03-05T03:48:18.969Z,35.64
2023-03-05T03:49:23.424Z,35.66
2023-03-05T03:50:27.383Z,35.62
2023-03-05T03:51:31.163Z,35.63
2023-03-05T03:52:34.941Z,35.62
2023-03-05T03:53:37.572Z,35.64
2023-03-05T03:54:40.391Z,35.66
2023-03-05T03:55:43.394Z,35.69
2023-03-05T03:56:46.117Z,35.68
2023-03-05T03:57:49.141Z,35.66
2023-03-05T03:58:53.213Z,35.73
2023-03-05T03:59:56.187Z,35.71
2023-03-05T04:00:58.809Z,35.73
2023-03-05T04:02:01.306Z,35.86
2023-03-05T04:03:04.531Z,35.86
2023-03-05T04:04:07.329Z,35.70
2023-03-05T04:05:10.623Z,35.67
2023-03-05T04:06:13.642Z,35.69
2023-03-05T04:07:17.233Z,35.67
2023-03-05T04:08:20.377Z,35.72
2023-03-05T04:09:22.940Z,35.66
2023-03-05T04:10:26.243Z,35.69
2023-03-05T04:11:28.726Z,35.66
2023-03-05T04:12:31.258Z,35.68
2023-03-05T04:13:33.492Z,35.70
2023-03-05T04:14:36.020Z,35.75
2023-03-05T04:15:38.559Z,35.67
2023-03-05T04:16:43.883Z,35.69
2023-03-05T04:17:46.665Z,35.69
2023-03-05T04:18:50.519Z,35.73
2023-03-05T04:19:53.654Z,35.70
2023-03-05T04:20:56.370Z,35.78
2023-03-05T04:22:00.025Z,35.68
2023-03-05T04:23:04.230Z,35.65
2023-03-05T04:24:07.753Z,35.67
2023-03-05T04:25:10.525Z,35.67
2023-03-05T04:26:13.282Z,35.70
2023-03-05T04:27:15.855Z,35.67
2023-03-05T04:28:18.387Z,35.70
2023-03-05T04:29:21.438Z,35.64
2023-03-05T04:30:23.917Z,35.62
2023-03-05T04:31:26.820Z,35.68
2023-03-05T04:32:30.337Z,35.67
2023-03-05T04:33:33.489Z,35.53
2023-03-05T04:34:38.970Z,35.54
2023-03-05T04:35:41.903Z,35.57
2023-03-05T04:36:44.704Z,35.58
2023-03-05T04:37:47.370Z,35.54
2023-03-05T04:38:49.942Z,35.56
2023-03-05T04:39:52.700Z,35.50
2023-03-05T04:40:55.724Z,35.52
2023-03-05T04:41:58.209Z,35.51
2023-03-05T04:43:00.828Z,35.51
2023-03-05T04:44:04.508Z,35.45
2023-03-05T04:45:10.169Z,35.50
2023-03-05T04:46:12.731Z,35.47
2023-03-05T04:47:15.583Z,35.50
2023-03-05T04:48:19.218Z,35.46
2023-03-05T04:49:22.303Z,35.52
2023-03-05T04:50:25.536Z,35.53
2023-03-05T04:51:28.143Z,35.56
2023-03-05T04:52:30.863Z,35.42
2023-03-05T04:53:33.775Z,35.42
2023-03-05T04:54:36.323Z,35.37
2023-03-05T04:55:38.793Z,35.37
2023-03-05T04:56:42.454Z,35.57
2023-03-05T04:57:45.025Z,35.51
2023-03-05T04:58:48.272Z,35.54
2023-03-05T04:59:51.278Z,35.52
2023-03-05T05:00:53.957Z,35.52
2023-03-05T05:01:57.231Z,35.56
2023-03-05T05:03:00.012Z,35.56
2023-03-05T05:04:02.981Z,35.56
2023-03-05T05:05:06.189Z,35.56
2023-03-05T05:06:09.560Z,35.63
2023-03-05T05:07:12.371Z,35.56
2023-03-05T05:08:16.999Z,35.48
2023-03-05T05:09:19.628Z,35.53
2023-03-05T05:10:22.381Z,35.35
2023-03-05T05:11:25.077Z,35.01
2023-03-05T05:12:30.530Z,32.86
2023-03-05T05:13:33.841Z,33.31
2023-03-05T05:14:37.387Z,34.61
2023-03-05T05:15:41.219Z,34.70
2023-03-05T05:16:43.828Z,34.81
2023-03-05T05:17:46.609Z,33.13
2023-03-05T05:18:49.217Z,33.13
2023-03-05T05:19:51.660Z,34.18
2023-03-05T05:21:57.743Z,34.33
2023-03-05T05:23:00.493Z,34.17
2023-03-05T05:24:04.073Z,34.42
2023-03-05T05:25:07.460Z,34.54
2023-03-05T05:26:12.282Z,34.64
2023-03-05T05:27:15.710Z,34.18
2023-03-05T05:28:18.478Z,34.18
2023-03-05T05:30:24.782Z,34.41
2023-03-05T05:31:27.416Z,34.27
2023-03-05T05:36:44.483Z,34.18
2023-03-05T05:37:47.142Z,34.30
2023-03-05T05:38:52.021Z,34.39
2023-03-05T05:39:54.551Z,34.43
2023-03-05T05:41:08.619Z,34.53
2023-03-05T05:42:11.614Z,34.55
2023-03-05T05:44:16.370Z,34.41
2023-03-05T05:45:19.102Z,34.42
2023-03-05T05:46:22.246Z,34.42
2023-03-05T05:47:25.911Z,33.44
2023-03-05T05:48:29.816Z,33.87
2023-03-05T05:49:32.260Z,34.21
2023-03-05T05:50:35.136Z,34.11
2023-03-05T05:51:37.820Z,34.18
2023-03-05T05:52:41.155Z,34.23
2023-03-05T05:53:43.973Z,34.24
2023-03-05T05:54:46.451Z,34.28
2023-03-05T05:55:50.107Z,34.39
2023-03-05T05:56:53.581Z,34.37
2023-03-05T05:57:56.310Z,34.26
2023-03-05T05:58:59.304Z,34.33
2023-03-05T06:00:03.086Z,34.35
2023-03-05T06:01:24.945Z,34.40
2023-03-05T06:02:27.544Z,34.41
2023-03-05T06:03:32.339Z,34.59
2023-03-05T06:04:35.543Z,34.71
2023-03-05T06:05:38.045Z,34.87
2023-03-05T06:06:41.004Z,34.96
2023-03-05T06:07:44.877Z,35.00
2023-03-05T06:08:47.626Z,35.05
2023-03-05T06:09:50.316Z,35.11
2023-03-05T06:10:55.845Z,35.16
2023-03-05T06:11:59.775Z,35.16
2023-03-05T06:14:06.921Z,35.15
2023-03-05T06:15:10.608Z,35.19
2023-03-05T06:17:31.056Z,35.16
2023-03-05T06:18:35.018Z,35.32
2023-03-05T06:19:37.758Z,35.43
2023-03-05T06:20:41.700Z,35.41
2023-03-05T06:21:44.465Z,35.50
2023-03-05T06:22:47.432Z,35.47
2023-03-05T06:23:50.041Z,35.50
2023-03-05T06:24:53.746Z,35.49
2023-03-05T06:26:00.640Z,35.41
2023-03-05T06:27:03.988Z,35.33
2023-03-05T06:28:06.611Z,35.38
2023-03-05T06:29:09.076Z,35.38
2023-03-05T06:30:12.909Z,35.38
2023-03-05T06:31:17.366Z,35.42
2023-03-05T06:32:20.861Z,35.42
2023-03-05T06:33:24.605Z,35.43
2023-03-05T06:34:28.465Z,35.48
2023-03-05T06:35:32.110Z,35.48
2023-03-05T06:36:36.563Z,35.49
2023-03-05T06:37:38.965Z,35.53
2023-03-05T06:38:42.788Z,35.52
2023-03-05T06:39:45.419Z,35.58
2023-03-05T06:40:48.849Z,35.66
2023-03-05T06:41:51.659Z,35.68
2023-03-05T06:42:54.317Z,35.73
2023-03-05T06:43:59.396Z,35.71
2023-03-05T06:45:02.087Z,35.76
2023-03-05T06:46:07.718Z,35.75
2023-03-05T06:47:10.535Z,35.79
2023-03-05T06:48:13.288Z,35.74
2023-03-05T06:49:15.894Z,35.77
2023-03-05T06:50:20.374Z,35.81
2023-03-05T06:51:33.612Z,35.78
2023-03-05T06:52:38.027Z,35.84
2023-03-05T06:53:41.858Z,35.81
2023-03-05T06:54:45.598Z,35.82
2023-03-05T06:55:49.106Z,35.85
2023-03-05T06:56:52.253Z,35.82
2023-03-05T06:57:55.529Z,35.87
2023-03-05T06:58:58.643Z,35.84
2023-03-05T07:00:02.210Z,35.86
2023-03-05T07:01:06.684Z,35.85
2023-03-05T07:02:10.885Z,35.90
2023-03-05T07:03:14.974Z,35.96
2023-03-05T07:04:17.698Z,35.95
2023-03-05T07:05:20.170Z,35.97
2023-03-05T07:06:23.994Z,35.98
2023-03-05T07:07:27.578Z,36.01
2023-03-05T07:08:31.655Z,36.10
2023-03-05T07:09:34.584Z,36.20
2023-03-05T07:10:41.822Z,36.18
2023-03-05T07:11:45.190Z,36.13
2023-03-05T07:12:47.813Z,36.19
2023-03-05T07:13:50.888Z,36.03
2023-03-05T07:14:53.719Z,36.03
2023-03-05T07:15:57.477Z,36.08
2023-03-05T07:17:00.235Z,36.12
2023-03-05T07:18:04.105Z,36.02
2023-03-05T07:19:08.576Z,36.02
2023-03-05T07:20:14.305Z,36.13
2023-03-05T07:21:19.145Z,36.17
2023-03-05T07:22:21.931Z,36.20
2023-03-05T07:23:24.508Z,36.19
2023-03-05T07:24:28.908Z,36.29
2023-03-05T07:25:31.505Z,36.29
2023-03-05T07:26:34.141Z,36.31
2023-03-05T07:27:38.356Z,36.33
2023-03-05T07:28:42.249Z,36.30
2023-03-05T07:29:45.849Z,36.26
2023-03-05T07:30:59.749Z,36.35
2023-03-05T07:32:03.657Z,36.35
2023-03-05T07:33:06.776Z,36.31
2023-03-05T07:34:09.534Z,36.27
2023-03-05T07:35:11.979Z,36.26
2023-03-05T07:36:15.042Z,36.44
2023-03-05T07:37:17.678Z,36.48
2023-03-05T07:38:20.384Z,36.46
2023-03-05T07:39:23.021Z,36.41
2023-03-05T07:40:26.784Z,36.33
2023-03-05T07:41:29.799Z,36.44
2023-03-05T07:42:33.142Z,36.50
2023-03-05T07:43:38.877Z,36.60
2023-03-05T07:44:41.770Z,36.59
2023-03-05T07:45:45.093Z,36.60
2023-03-05T07:46:48.385Z,36.57
2023-03-05T07:47:52.649Z,36.57
2023-03-05T07:48:55.752Z,36.54
2023-03-05T07:49:58.464Z,36.53
2023-03-05T07:52:19.584Z,36.53
2023-03-05T07:53:25.632Z,36.50
2023-03-05T07:54:36.594Z,36.47
2023-03-05T07:55:43.482Z,36.48
2023-03-05T07:56:46.146Z,36.43
2023-03-05T07:57:50.638Z,36.40
2023-03-05T07:58:53.681Z,36.40
2023-03-05T07:59:57.429Z,36.35
2023-03-05T08:00:59.957Z,36.31
2023-03-05T08:02:02.426Z,36.30
2023-03-05T08:03:06.655Z,36.31
2023-03-05T08:04:11.077Z,36.31
2023-03-05T08:05:14.068Z,36.43
2023-03-05T08:06:16.947Z,36.38
2023-03-05T08:07:19.346Z,36.42
2023-03-05T08:08:22.886Z,36.30
2023-03-05T08:09:25.712Z,36.20
2023-03-05T08:10:29.228Z,36.20
2023-03-05T08:11:31.958Z,35.86
2023-03-05T08:12:34.618Z,35.72
2023-03-05T08:13:37.626Z,35.75
2023-03-05T08:14:40.782Z,35.68
2023-03-05T08:15:43.166Z,35.56
2023-03-05T08:16:48.254Z,35.52
2023-03-05T08:17:50.430Z,35.57
2023-03-05T08:18:57.811Z,35.58
2023-03-05T08:20:03.187Z,35.58
2023-03-05T08:21:05.984Z,35.68
2023-03-05T08:22:08.611Z,35.63
2023-03-05T08:23:10.944Z,35.62
2023-03-05T08:24:14.244Z,35.73
2023-03-05T08:25:17.289Z,35.81
2023-03-05T08:26:21.351Z,35.91
2023-03-05T08:27:24.011Z,36.02
2023-03-05T08:28:28.675Z,36.00
2023-03-05T08:29:32.631Z,36.10
2023-03-05T08:30:38.844Z,36.15
2023-03-05T08:31:45.169Z,36.21
2023-03-05T08:32:49.073Z,36.19
2023-03-05T08:33:54.051Z,36.35
2023-03-05T08:34:59.018Z,36.41
2023-03-05T08:36:02.766Z,36.46
2023-03-05T08:37:07.776Z,36.52
2023-03-05T08:38:10.981Z,36.55
2023-03-05T08:39:13.290Z,36.78
2023-03-05T08:40:19.212Z,36.98
2023-03-05T08:41:22.903Z,36.98
2023-03-05T08:42:25.658Z,37.09
2023-03-05T08:43:30.655Z,37.01
2023-03-05T08:44:33.309Z,36.90
2023-03-05T08:45:35.777Z,36.92
2023-03-05T08:46:39.613Z,36.94
2023-03-05T08:47:42.844Z,36.96
2023-03-05T08:48:45.563Z,36.97
2023-03-05T08:50:00.449Z,36.98
2023-03-05T08:51:16.143Z,37.02
2023-03-05T08:52:20.984Z,37.09
2023-03-05T08:53:23.835Z,37.10
2023-03-05T08:54:27.668Z,37.10
2023-03-05T08:56:50.334Z,37.14
2023-03-05T08:57:52.920Z,37.20
2023-03-05T08:58:55.217Z,37.22
2023-03-05T08:59:57.804Z,37.27
2023-03-05T09:01:01.596Z,37.25
2023-03-05T09:02:05.453Z,37.27
2023-03-05T09:03:08.573Z,37.31
2023-03-05T09:04:11.157Z,37.31
2023-03-05T09:05:16.173Z,37.32
2023-03-05T09:06:19.235Z,37.35
2023-03-05T09:07:22.212Z,37.35
2023-03-05T09:08:25.729Z,37.32
2023-03-05T09:09:34.335Z,37.31
2023-03-05T09:10:45.995Z,37.31
2023-03-05T09:11:49.596Z,37.27
2023-03-05T09:12:51.879Z,37.26
2023-03-05T09:13:54.296Z,37.24
2023-03-05T09:14:56.933Z,37.26
2023-03-05T09:16:01.211Z,37.30
2023-03-05T09:17:06.458Z,37.39
2023-03-05T09:18:09.257Z,37.41
2023-03-05T09:19:12.597Z,37.41
2023-03-05T09:20:25.226Z,37.47
2023-03-05T09:21:30.587Z,37.54
2023-03-05T09:22:34.119Z,37.89
2023-03-05T09:23:37.542Z,40.98
2023-03-05T09:24:44.058Z,42.46
2023-03-05T09:25:48.250Z,41.08
2023-03-05T09:26:52.555Z,40.77
2023-03-05T09:27:58.338Z,40.77
2023-03-05T09:29:03.117Z,40.79
2023-03-05T09:30:07.664Z,40.65
2023-03-05T09:31:10.737Z,40.41
2023-03-05T09:32:13.500Z,40.21
2023-03-05T09:33:17.754Z,40.08
2023-03-05T09:34:20.777Z,39.91
2023-03-05T09:35:23.219Z,39.77
2023-03-05T09:36:29.385Z,39.62
2023-03-05T09:37:32.845Z,39.51
2023-03-05T09:38:37.410Z,39.39
2023-03-05T09:39:42.168Z,39.29
2023-03-05T09:40:58.433Z,39.21
2023-03-05T09:42:18.078Z,39.12
2023-03-05T09:43:42.770Z,39.05
2023-03-05T09:44:56.024Z,38.96
2023-03-05T09:46:02.214Z,38.86
2023-03-05T09:47:35.098Z,38.77
2023-03-05T09:48:50.668Z,38.83
2023-03-05T09:50:25.294Z,38.87
2023-03-05T09:51:30.350Z,38.89
2023-03-05T09:52:43.498Z,38.89
2023-03-05T09:55:16.273Z,38.85
2023-03-05T09:56:34.071Z,38.82
2023-03-05T09:57:41.312Z,38.78
2023-03-05T09:58:56.812Z,38.76
2023-03-05T10:00:00.802Z,38.72
2023-03-05T10:01:16.452Z,38.66
2023-03-05T10:02:23.641Z,38.63
2023-03-05T10:03:50.833Z,38.57
2023-03-05T10:06:25.197Z,38.55
2023-03-05T10:07:30.253Z,38.83
2023-03-05T10:09:02.345Z,39.02
2023-03-05T10:10:26.382Z,39.16
2023-03-05T10:11:57.448Z,39.48
2023-03-05T10:13:01.336Z,34.70
2023-03-05T10:14:04.624Z,35.37
2023-03-05T10:15:15.875Z,34.60
2023-03-05T10:16:40.643Z,33.39
2023-03-05T10:19:20.353Z,32.52
2023-03-05T10:20:32.439Z,32.81
2023-03-05T10:21:44.601Z,32.15
2023-03-05T10:23:03.769Z,32.98
2023-03-05T10:24:19.687Z,33.13
2023-03-05T10:25:32.472Z,33.64
2023-03-05T10:26:55.826Z,34.01
2023-03-05T10:28:00.702Z,33.89
2023-03-05T10:29:19.259Z,33.64
2023-03-05T10:30:45.633Z,33.60
2023-03-05T10:32:01.508Z,33.80
2023-03-05T10:33:13.812Z,34.09
2023-03-05T10:34:25.783Z,33.51
2023-03-05T10:36:11.052Z,33.91
2023-03-05T10:37:25.698Z,34.29
2023-03-05T10:38:34.834Z,33.95
2023-03-05T10:39:50.227Z,33.71
2023-03-05T10:40:56.382Z,36.56
2023-03-05T10:44:10.996Z,37.40
2023-03-05T10:45:20.944Z,37.39
2023-03-05T10:46:29.084Z,37.30
2023-03-05T10:47:36.441Z,37.21
2023-03-05T10:48:55.162Z,37.17
2023-03-05T10:49:59.373Z,37.22
2023-03-05T10:52:30.989Z,37.22
2023-03-05T10:53:49.212Z,37.13
2023-03-05T10:54:51.478Z,37.11
2023-03-05T10:55:55.917Z,36.96
2023-03-05T10:57:14.077Z,36.91
2023-03-05T10:58:17.209Z,36.87
2023-03-05T10:59:20.803Z,36.97
2023-03-05T11:00:28.427Z,36.94
2023-03-05T11:01:32.685Z,36.95
2023-03-05T11:02:35.502Z,36.94
2023-03-05T11:03:49.761Z,36.88
2023-03-05T11:04:52.939Z,36.97
2023-03-05T11:06:00.707Z,37.01
2023-03-05T11:07:31.897Z,37.07
2023-03-05T11:08:35.171Z,37.18
2023-03-05T11:09:37.540Z,37.21
2023-03-05T11:10:40.551Z,37.27
2023-03-05T11:11:45.210Z,37.37
2023-03-05T11:12:48.817Z,37.39
2023-03-05T11:13:59.421Z,37.47
2023-03-05T11:15:08.718Z,37.51
2023-03-05T11:16:23.520Z,37.47
2023-03-05T11:17:39.250Z,37.53
2023-03-05T11:18:42.792Z,37.52
2023-03-05T11:19:45.646Z,37.49
2023-03-05T11:20:48.321Z,37.55
2023-03-05T11:22:10.358Z,37.55
2023-03-05T11:23:19.240Z,37.62
2023-03-05T11:24:23.371Z,37.61
2023-03-05T11:25:27.462Z,37.62
2023-03-05T11:26:30.146Z,37.01
2023-03-05T11:27:38.117Z,33.33
2023-03-05T11:28:53.409Z,33.27
2023-03-05T11:29:56.626Z,32.23
2023-03-05T11:31:19.162Z,31.15
2023-03-05T11:32:28.434Z,31.54
2023-03-05T11:33:34.045Z,32.96
2023-03-05T11:34:36.546Z,33.71
2023-03-05T11:35:42.713Z,33.78
2023-03-05T11:36:55.800Z,33.03
2023-03-05T11:38:03.449Z,34.30
2023-03-05T11:39:09.335Z,33.83
2023-03-05T11:40:20.654Z,33.87
2023-03-05T11:42:52.434Z,35.06
2023-03-05T11:43:54.988Z,33.42
2023-03-05T11:44:57.613Z,33.35
2023-03-05T11:46:03.703Z,34.34
2023-03-05T11:47:34.467Z,34.81
2023-03-05T11:48:39.104Z,33.95
2023-03-05T11:49:46.105Z,34.35
2023-03-05T11:50:51.135Z,34.35
2023-03-05T11:52:05.346Z,34.97
2023-03-05T11:53:16.721Z,34.25
2023-03-05T11:54:22.803Z,34.95
2023-03-05T11:55:28.485Z,32.50
2023-03-05T11:56:33.246Z,33.64
2023-03-05T11:57:52.598Z,33.38
2023-03-05T11:59:19.417Z,33.55
2023-03-05T12:00:27.142Z,33.63
2023-03-05T12:01:33.122Z,33.44
2023-03-05T12:02:37.490Z,34.34
2023-03-05T12:03:40.523Z,34.29
2023-03-05T12:04:45.681Z,34.58
2023-03-05T12:07:06.313Z,33.69
2023-03-05T12:08:15.295Z,32.90
2023-03-05T12:09:26.851Z,33.58
2023-03-05T12:10:30.083Z,34.47
2023-03-05T12:11:33.184Z,33.67
2023-03-05T12:13:09.496Z,35.65
2023-03-05T12:14:25.249Z,36.74
2023-03-05T12:15:57.670Z,37.59
2023-03-05T12:18:55.352Z,37.82
2023-03-05T12:20:09.127Z,37.79
2023-03-05T12:22:52.240Z,37.84
2023-03-05T12:24:01.463Z,37.91
2023-03-05T12:26:58.572Z,37.77
2023-03-05T12:28:02.020Z,37.81
2023-03-05T12:29:05.180Z,37.77
2023-03-05T12:31:38.638Z,37.63
2023-03-05T12:32:49.360Z,37.65
2023-03-05T12:33:52.838Z,37.58
2023-03-05T12:35:15.569Z,37.57
2023-03-05T12:36:25.811Z,37.53
2023-03-05T12:37:32.980Z,37.45
2023-03-05T12:38:38.024Z,37.42
2023-03-05T12:39:44.015Z,37.42
2023-03-05T12:40:47.335Z,37.42
2023-03-05T12:41:50.560Z,37.32
2023-03-05T12:42:56.677Z,37.25
2023-03-05T12:44:09.794Z,37.18
2023-03-05T12:45:16.478Z,37.12
2023-03-05T12:46:25.142Z,37.05
2023-03-05T12:48:33.635Z,37.05
2023-03-05T12:50:52.095Z,37.01
2023-03-05T12:51:56.672Z,36.99
2023-03-05T12:53:18.008Z,35.08
2023-03-05T12:54:25.500Z,32.94
2023-03-05T12:55:35.737Z,32.26
2023-03-05T12:56:40.758Z,32.06
2023-03-05T12:57:45.410Z,30.99
2023-03-05T12:58:53.972Z,32.03
2023-03-05T13:02:57.783Z,31.69
2023-03-05T13:05:30.768Z,30.93
2023-03-05T13:06:35.397Z,30.31
2023-03-05T13:07:39.094Z,31.71
2023-03-05T13:08:42.908Z,31.18
2023-03-05T13:09:53.983Z,31.55
2023-03-05T13:11:11.355Z,33.59
2023-03-05T13:12:14.677Z,33.97
2023-03-05T13:13:21.490Z,34.27
2023-03-05T13:14:34.920Z,34.39
2023-03-05T13:15:37.539Z,34.57
2023-03-05T13:16:41.511Z,34.61
2023-03-05T13:17:55.359Z,34.67
2023-03-05T13:19:01.072Z,34.81
2023-03-05T13:20:29.320Z,34.83
2023-03-05T13:21:33.320Z,34.81
2023-03-05T13:22:38.336Z,34.73
2023-03-05T13:23:48.423Z,34.67
2023-03-05T13:25:15.282Z,34.66
2023-03-05T13:26:19.798Z,34.54
2023-03-05T13:27:30.644Z,34.41
2023-03-05T13:28:34.297Z,34.34
2023-03-05T13:29:37.625Z,34.25
2023-03-05T13:30:55.595Z,34.19
2023-03-05T13:32:00.102Z,34.13
2023-03-05T13:33:04.014Z,34.05
2023-03-05T13:35:25.746Z,33.89
2023-03-05T13:36:28.894Z,33.84
2023-03-05T13:37:33.670Z,33.77
2023-03-05T13:38:41.160Z,33.67
2023-03-05T13:41:29.544Z,33.41
2023-03-05T13:42:35.133Z,33.25
2023-03-05T13:45:22.189Z,33.10
2023-03-05T13:46:28.769Z,33.03
2023-03-05T13:47:36.486Z,32.98
2023-03-05T13:48:39.805Z,32.98
2023-03-05T13:49:47.774Z,32.96
2023-03-05T13:51:03.739Z,32.88
2023-03-05T13:53:28.572Z,32.71
2023-03-05T13:54:33.347Z,32.68
2023-03-05T13:55:36.666Z,32.55
2023-03-05T13:56:58.579Z,32.56
2023-03-05T13:58:02.159Z,32.67
2023-03-05T13:59:05.763Z,32.69
2023-03-05T14:01:51.835Z,32.73
2023-03-05T14:02:55.102Z,32.83
2023-03-05T14:04:11.302Z,32.80
2023-03-05T14:05:14.852Z,32.80
2023-03-05T14:06:20.649Z,32.74
2023-03-05T14:07:35.777Z,32.75
2023-03-05T14:08:40.308Z,32.67
2023-03-05T14:09:46.529Z,32.60
2023-03-05T14:10:49.404Z,32.57
2023-03-05T14:13:18.335Z,32.44
2023-03-05T14:14:21.433Z,32.42
2023-03-05T14:15:30.236Z,32.38
2023-03-05T14:16:33.393Z,32.35
2023-03-05T14:17:41.844Z,32.25
2023-03-05T14:20:32.059Z,32.05
2023-03-05T14:23:02.894Z,31.91
2023-03-05T14:24:20.963Z,31.86
2023-03-05T14:25:37.022Z,31.89
2023-03-05T14:26:44.425Z,31.85
2023-03-05T14:27:47.979Z,31.83
2023-03-05T14:29:03.195Z,31.83
2023-03-05T14:30:13.207Z,31.86
2023-03-05T14:31:16.962Z,31.89
2023-03-05T14:32:33.576Z,31.91
2023-03-05T14:33:36.406Z,31.90
2023-03-05T14:34:41.562Z,31.86
2023-03-05T14:35:48.136Z,31.86
2023-03-05T14:36:52.457Z,31.91
2023-03-05T14:37:56.538Z,31.97
2023-03-05T14:40:33.012Z,31.99
2023-03-05T14:41:52.001Z,32.02
2023-03-05T14:42:59.722Z,32.11
2023-03-05T14:44:20.050Z,32.13
2023-03-05T14:45:39.599Z,32.17
2023-03-05T14:46:43.743Z,32.28
2023-03-05T14:47:46.704Z,32.36
2023-03-05T14:50:18.324Z,32.51
2023-03-05T14:51:29.711Z,32.60
2023-03-05T14:52:34.456Z,32.72
2023-03-05T14:54:57.228Z,32.76
2023-03-05T14:55:59.626Z,32.74
2023-03-05T14:57:03.745Z,32.79
2023-03-05T14:58:19.483Z,32.80
2023-03-05T14:59:22.942Z,32.80
2023-03-05T15:00:27.254Z,32.81
2023-03-05T15:01:31.830Z,32.84
2023-03-05T15:02:34.980Z,32.83